sensor_id;sensor_type;location;lat;lon;timestamp;pressure;altitude;pressure_sealevel;temperature;humidity
22389;BME280;11362;48.102;11.620;2023-05-15T00:00:02;94761.31;;;22.60;45.08
22389;BME280;11362;48.102;11.620;2023-05-15T00:02:28;94756.97;;;22.59;44.94
22389;BME280;11362;48.102;11.620;2023-05-15T00:04:53;94761.31;;;22.60;44.84
22389;BME280;11362;48.102;11.620;2023-05-15T00:07:18;94764.06;;;22.60;44.98
22389;BME280;11362;48.102;11.620;2023-05-15T00:09:44;94764.06;;;22.60;44.81
22389;BME280;11362;48.102;11.620;2023-05-15T00:12:09;94761.31;;;22.60;45.00
22389;BME280;11362;48.102;11.620;2023-05-15T00:14:34;94757.78;;;22.59;44.94
22389;BME280;11362;48.102;11.620;2023-05-15T00:17:00;94757.31;;;22.61;44.97
22389;BME280;11362;48.102;11.620;2023-05-15T00:19:25;94748.69;;;22.59;44.93
22389;BME280;11362;48.102;11.620;2023-05-15T00:21:51;94747.13;;;22.58;45.13
22389;BME280;11362;48.102;11.620;2023-05-15T00:24:16;94745.13;;;22.58;44.79
22389;BME280;11362;48.102;11.620;2023-05-15T00:26:41;94743.13;;;22.59;44.83
22389;BME280;11362;48.102;11.620;2023-05-15T00:29:07;94741.56;;;22.58;44.92
22389;BME280;11362;48.102;11.620;2023-05-15T00:31:32;94747.13;;;22.58;44.93
22389;BME280;11362;48.102;11.620;2023-05-15T00:33:57;94742.34;;;22.58;44.90
22389;BME280;11362;48.102;11.620;2023-05-15T00:36:23;94743.56;;;22.57;44.78
22389;BME280;11362;48.102;11.620;2023-05-15T00:38:48;94741.56;;;22.58;44.96
22389;BME280;11362;48.102;11.620;2023-05-15T00:41:14;94739.56;;;22.58;44.70
22389;BME280;11362;48.102;11.620;2023-05-15T00:43:41;94738.81;;;22.58;44.68
22389;BME280;11362;48.102;11.620;2023-05-15T00:46:08;94732.47;;;22.57;44.82
22389;BME280;11362;48.102;11.620;2023-05-15T00:48:34;94736.03;;;22.58;44.76
22389;BME280;11362;48.102;11.620;2023-05-15T00:50:59;94723.41;;;22.57;44.79
22389;BME280;11362;48.102;11.620;2023-05-15T00:53:27;94724.97;;;22.58;44.71
22389;BME280;11362;48.102;11.620;2023-05-15T00:55:57;94724.97;;;22.58;44.79
22389;BME280;11362;48.102;11.620;2023-05-15T00:58:23;94734.50;;;22.57;44.87
22389;BME280;11362;48.102;11.620;2023-05-15T01:00:49;94732.13;;;22.55;44.85
22389;BME280;11362;48.102;11.620;2023-05-15T01:03:15;94719.84;;;22.56;44.79
22389;BME280;11362;48.102;11.620;2023-05-15T01:05:40;94721.41;;;22.57;44.87
22389;BME280;11362;48.102;11.620;2023-05-15T01:10:41;94727.75;;;22.58;44.65
22389;BME280;11362;48.102;11.620;2023-05-15T01:13:08;94727.38;;;22.56;44.65
22389;BME280;11362;48.102;11.620;2023-05-15T01:15:34;94721.84;;;22.56;44.69
22389;BME280;11362;48.102;11.620;2023-05-15T01:18:00;94736.03;;;22.58;44.79
22389;BME280;11362;48.102;11.620;2023-05-15T01:20:25;94731.72;;;22.57;44.95
22389;BME280;11362;48.102;11.620;2023-05-15T01:23:11;94733.69;;;22.56;44.73
22389;BME280;11362;48.102;11.620;2023-05-15T01:25:52;94730.91;;;22.56;44.74
22389;BME280;11362;48.102;11.620;2023-05-15T01:28:26;94722.63;;;22.56;44.65
22389;BME280;11362;48.102;11.620;2023-05-15T01:30:54;94730.16;;;22.56;44.62
22389;BME280;11362;48.102;11.620;2023-05-15T01:38:29;94724.63;;;22.56;44.60
22389;BME280;11362;48.102;11.620;2023-05-15T01:44:04;94726.59;;;22.55;44.61
22389;BME280;11362;48.102;11.620;2023-05-15T01:46:33;94725.81;;;22.55;44.77
22389;BME280;11362;48.102;11.620;2023-05-15T01:49:01;94721.06;;;22.55;44.41
22389;BME280;11362;48.102;11.620;2023-05-15T01:51:28;94720.25;;;22.55;44.80
22389;BME280;11362;48.102;11.620;2023-05-15T01:53:55;94724.25;;;22.54;44.63
22389;BME280;11362;48.102;11.620;2023-05-15T01:56:22;94720.25;;;22.55;44.73
22389;BME280;11362;48.102;11.620;2023-05-15T01:58:49;94727.81;;;22.54;44.57
22389;BME280;11362;48.102;11.620;2023-05-15T02:01:16;94723.03;;;22.55;44.68
22389;BME280;11362;48.102;11.620;2023-05-15T02:03:43;94718.72;;;22.54;44.46
22389;BME280;11362;48.102;11.620;2023-05-15T02:06:10;94715.19;;;22.53;44.58
22389;BME280;11362;48.102;11.620;2023-05-15T02:08:36;94711.97;;;22.55;44.57
22389;BME280;11362;48.102;11.620;2023-05-15T02:11:02;94710.41;;;22.54;44.61
22389;BME280;11362;48.102;11.620;2023-05-15T02:13:27;94713.16;;;22.54;44.57
22389;BME280;11362;48.102;11.620;2023-05-15T02:15:54;94715.19;;;22.53;44.58
22389;BME280;11362;48.102;11.620;2023-05-15T02:18:19;94706.44;;;22.55;44.69
22389;BME280;11362;48.102;11.620;2023-05-15T02:20:45;94713.16;;;22.54;44.72
22389;BME280;11362;48.102;11.620;2023-05-15T02:23:10;94713.16;;;22.54;44.75
22389;BME280;11362;48.102;11.620;2023-05-15T02:28:21;94711.19;;;22.54;44.61
22389;BME280;11362;48.102;11.620;2023-05-15T02:30:53;94709.19;;;22.55;44.55
22389;BME280;11362;48.102;11.620;2023-05-15T02:33:28;94714.38;;;22.53;44.62
22389;BME280;11362;48.102;11.620;2023-05-15T02:36:05;94720.72;;;22.53;44.52
22389;BME280;11362;48.102;11.620;2023-05-15T02:38:37;94715.19;;;22.53;44.66
22389;BME280;11362;48.102;11.620;2023-05-15T02:41:04;94720.72;;;22.53;44.68
22389;BME280;11362;48.102;11.620;2023-05-15T02:43:31;94715.94;;;22.54;44.47
22389;BME280;11362;48.102;11.620;2023-05-15T02:45:58;94714.38;;;22.53;44.49
22389;BME280;11362;48.102;11.620;2023-05-15T02:48:24;94707.28;;;22.52;44.55
22389;BME280;11362;48.102;11.620;2023-05-15T02:50:50;94717.16;;;22.53;44.51
22389;BME280;11362;48.102;11.620;2023-05-15T02:53:16;94712.81;;;22.52;44.52
22389;BME280;11362;48.102;11.620;2023-05-15T02:55:41;94717.16;;;22.53;44.78
22389;BME280;11362;48.102;11.620;2023-05-15T02:58:07;94714.03;;;22.51;44.52
22389;BME280;11362;48.102;11.620;2023-05-15T03:00:32;94710.06;;;22.52;44.66
22389;BME280;11362;48.102;11.620;2023-05-15T03:02:58;94720.25;;;22.55;44.64
22389;BME280;11362;48.102;11.620;2023-05-15T03:05:23;94704.53;;;22.52;44.72
22389;BME280;11362;48.102;11.620;2023-05-15T03:07:48;94710.06;;;22.52;44.48
22389;BME280;11362;48.102;11.620;2023-05-15T03:10:14;94706.06;;;22.53;44.47
22389;BME280;11362;48.102;11.620;2023-05-15T03:12:39;94708.84;;;22.53;44.55
22389;BME280;11362;48.102;11.620;2023-05-15T03:15:05;94717.16;;;22.53;44.63
22389;BME280;11362;48.102;11.620;2023-05-15T03:17:31;94717.16;;;22.53;44.58
22389;BME280;11362;48.102;11.620;2023-05-15T03:19:56;94707.28;;;22.52;44.44
22389;BME280;11362;48.102;11.620;2023-05-15T03:22:21;94701.75;;;22.52;44.50
22389;BME280;11362;48.102;11.620;2023-05-15T03:24:46;94697.41;;;22.51;44.62
22389;BME280;11362;48.102;11.620;2023-05-15T03:27:12;94704.53;;;22.52;44.38
22389;BME280;11362;48.102;11.620;2023-05-15T03:29:37;94705.72;;;22.51;44.48
22389;BME280;11362;48.102;11.620;2023-05-15T03:32:02;94698.97;;;22.52;44.46
22389;BME280;11362;48.102;11.620;2023-05-15T03:34:28;94700.19;;;22.51;44.58
22389;BME280;11362;48.102;11.620;2023-05-15T03:36:53;94702.97;;;22.51;44.47
22389;BME280;11362;48.102;11.620;2023-05-15T03:39:18;94705.72;;;22.51;44.40
22389;BME280;11362;48.102;11.620;2023-05-15T03:41:44;94696.22;;;22.52;44.46
22389;BME280;11362;48.102;11.620;2023-05-15T03:44:09;94701.75;;;22.52;44.64
22389;BME280;11362;48.102;11.620;2023-05-15T03:46:34;94704.16;;;22.50;44.44
22389;BME280;11362;48.102;11.620;2023-05-15T03:48:59;94704.16;;;22.50;44.54
22389;BME280;11362;48.102;11.620;2023-05-15T03:51:25;94708.50;;;22.51;44.40
22389;BME280;11362;48.102;11.620;2023-05-15T03:53:50;94701.41;;;22.50;44.57
22389;BME280;11362;48.102;11.620;2023-05-15T03:56:15;94705.72;;;22.51;44.52
22389;BME280;11362;48.102;11.620;2023-05-15T03:58:41;94711.25;;;22.51;44.47
22389;BME280;11362;48.102;11.620;2023-05-15T04:01:06;94715.25;;;22.50;44.33
22389;BME280;11362;48.102;11.620;2023-05-15T04:03:31;94711.25;;;22.51;44.53
22389;BME280;11362;48.102;11.620;2023-05-15T04:05:56;94714.03;;;22.51;44.40
22389;BME280;11362;48.102;11.620;2023-05-15T04:08:22;94713.22;;;22.50;44.54
22389;BME280;11362;48.102;11.620;2023-05-15T04:10:47;94710.84;;;22.52;44.55
22389;BME280;11362;48.102;11.620;2023-05-15T04:13:12;94715.59;;;22.52;44.43
22389;BME280;11362;48.102;11.620;2023-05-15T04:15:39;94711.69;;;22.49;44.33
22389;BME280;11362;48.102;11.620;2023-05-15T04:18:04;94712.47;;;22.50;44.44
22389;BME280;11362;48.102;11.620;2023-05-15T04:20:30;94717.22;;;22.49;44.48
22389;BME280;11362;48.102;11.620;2023-05-15T04:22:55;94716.81;;;22.51;44.53
22389;BME280;11362;48.102;11.620;2023-05-15T04:25:20;94717.22;;;22.49;44.51
22389;BME280;11362;48.102;11.620;2023-05-15T04:27:46;94722.75;;;22.49;44.46
22389;BME280;11362;48.102;11.620;2023-05-15T04:30:12;94714.88;;;22.48;44.49
22389;BME280;11362;48.102;11.620;2023-05-15T04:32:38;94722.75;;;22.49;44.29
22389;BME280;11362;48.102;11.620;2023-05-15T04:35:05;94729.06;;;22.50;44.42
22389;BME280;11362;48.102;11.620;2023-05-15T04:37:31;94722.75;;;22.49;44.36
22389;BME280;11362;48.102;11.620;2023-05-15T04:39:56;94727.53;;;22.49;44.43
22389;BME280;11362;48.102;11.620;2023-05-15T04:42:22;94729.06;;;22.50;44.49
22389;BME280;11362;48.102;11.620;2023-05-15T04:44:47;94721.97;;;22.49;44.34
22389;BME280;11362;48.102;11.620;2023-05-15T04:47:12;94721.19;;;22.48;44.38
22389;BME280;11362;48.102;11.620;2023-05-15T04:49:39;94717.66;;;22.48;44.51
22389;BME280;11362;48.102;11.620;2023-05-15T04:52:05;94726.31;;;22.50;44.50
22389;BME280;11362;48.102;11.620;2023-05-15T04:54:30;94717.22;;;22.49;44.32
22389;BME280;11362;48.102;11.620;2023-05-15T04:56:56;94723.53;;;22.50;44.45
22389;BME280;11362;48.102;11.620;2023-05-15T04:59:21;94728.28;;;22.49;44.48
22389;BME280;11362;48.102;11.620;2023-05-15T05:01:46;94731.50;;;22.48;44.41
22389;BME280;11362;48.102;11.620;2023-05-15T05:04:11;94731.84;;;22.50;44.19
22389;BME280;11362;48.102;11.620;2023-05-15T05:06:37;94736.66;;;22.46;44.52
22389;BME280;11362;48.102;11.620;2023-05-15T05:09:02;94734.25;;;22.48;44.47
22389;BME280;11362;48.102;11.620;2023-05-15T05:11:27;94737.03;;;22.48;44.47
22389;BME280;11362;48.102;11.620;2023-05-15T05:13:53;94743.31;;;22.48;44.41
22389;BME280;11362;48.102;11.620;2023-05-15T05:16:18;94744.13;;;22.49;44.43
22389;BME280;11362;48.102;11.620;2023-05-15T05:18:43;94744.88;;;22.49;44.37
22389;BME280;11362;48.102;11.620;2023-05-15T05:21:09;94741.78;;;22.47;44.42
22389;BME280;11362;48.102;11.620;2023-05-15T05:23:34;94748.09;;;22.48;44.53
22389;BME280;11362;48.102;11.620;2023-05-15T05:25:59;94745.34;;;22.48;44.61
22389;BME280;11362;48.102;11.620;2023-05-15T05:28:24;94742.56;;;22.48;44.40
22389;BME280;11362;48.102;11.620;2023-05-15T05:30:50;94750.41;;;22.49;44.35
22389;BME280;11362;48.102;11.620;2023-05-15T05:33:16;94753.53;;;22.51;44.56
22389;BME280;11362;48.102;11.620;2023-05-15T05:35:41;94755.47;;;22.54;44.77
22389;BME280;11362;48.102;11.620;2023-05-15T05:38:06;94753.91;;;22.53;44.81
22389;BME280;11362;48.102;11.620;2023-05-15T05:40:32;94750.28;;;22.56;45.18
22389;BME280;11362;48.102;11.620;2023-05-15T05:43:00;94758.19;;;22.58;45.15
22389;BME280;11362;48.102;11.620;2023-05-15T05:45:26;94762.50;;;22.59;45.24
22389;BME280;11362;48.102;11.620;2023-05-15T05:47:53;94765.63;;;22.61;45.21
22389;BME280;11362;48.102;11.620;2023-05-15T05:50:18;94769.97;;;22.62;45.29
22389;BME280;11362;48.102;11.620;2023-05-15T05:52:44;94764.88;;;22.60;45.25
22389;BME280;11362;48.102;11.620;2023-05-15T05:55:09;94758.88;;;22.62;45.38
22389;BME280;11362;48.102;11.620;2023-05-15T05:57:34;94768.00;;;22.62;45.59
22389;BME280;11362;48.102;11.620;2023-05-15T06:00:00;94769.13;;;22.65;45.52
22389;BME280;11362;48.102;11.620;2023-05-15T06:02:25;94766.78;;;22.63;45.72
22389;BME280;11362;48.102;11.620;2023-05-15T06:04:51;94767.94;;;22.66;45.80
22389;BME280;11362;48.102;11.620;2023-05-15T06:07:16;94775.03;;;22.67;45.78
22389;BME280;11362;48.102;11.620;2023-05-15T06:09:41;94767.13;;;22.65;45.90
22389;BME280;11362;48.102;11.620;2023-05-15T06:12:07;94773.47;;;22.66;45.79
22389;BME280;11362;48.102;11.620;2023-05-15T06:14:32;94768.28;;;22.68;45.67
22389;BME280;11362;48.102;11.620;2023-05-15T06:16:57;94762.38;;;22.66;45.73
22389;BME280;11362;48.102;11.620;2023-05-15T06:19:23;94769.47;;;22.67;45.76
22389;BME280;11362;48.102;11.620;2023-05-15T06:21:48;94768.28;;;22.68;45.75
22389;BME280;11362;48.102;11.620;2023-05-15T06:24:13;94776.59;;;22.68;45.71
22389;BME280;11362;48.102;11.620;2023-05-15T06:26:39;94775.03;;;22.67;45.84
22389;BME280;11362;48.102;11.620;2023-05-15T06:29:04;94770.69;;;22.66;45.89
22389;BME280;11362;48.102;11.620;2023-05-15T06:31:30;94792.84;;;22.66;45.72
22389;BME280;11362;48.102;11.620;2023-05-15T06:33:55;94784.53;;;22.66;45.67
22389;BME280;11362;48.102;11.620;2023-05-15T06:36:20;94785.31;;;22.66;45.83
22389;BME280;11362;48.102;11.620;2023-05-15T06:38:45;94778.59;;;22.67;46.08
22389;BME280;11362;48.102;11.620;2023-05-15T06:41:11;94793.56;;;22.70;46.36
22389;BME280;11362;48.102;11.620;2023-05-15T06:43:36;94787.97;;;22.73;46.96
22389;BME280;11362;48.102;11.620;2023-05-15T06:46:01;94784.75;;;22.75;46.58
22389;BME280;11362;48.102;11.620;2023-05-15T06:48:27;94788.53;;;22.42;43.68
22389;BME280;11362;48.102;11.620;2023-05-15T06:50:52;94788.59;;;22.35;44.01
22389;BME280;11362;48.102;11.620;2023-05-15T06:53:17;94799.94;;;22.44;44.07
22389;BME280;11362;48.102;11.620;2023-05-15T06:55:43;94787.53;;;22.52;44.38
22389;BME280;11362;48.102;11.620;2023-05-15T06:58:08;94791.41;;;22.58;44.54
22389;BME280;11362;48.102;11.620;2023-05-15T07:00:33;94790.53;;;22.61;44.58
22389;BME280;11362;48.102;11.620;2023-05-15T07:02:58;94783.75;;;22.65;45.32
22389;BME280;11362;48.102;11.620;2023-05-15T07:05:24;94791.22;;;22.68;45.82
22389;BME280;11362;48.102;11.620;2023-05-15T07:07:49;94791.16;;;22.72;46.17
22389;BME280;11362;48.102;11.620;2023-05-15T07:10:14;94788.81;;;22.70;46.29
22389;BME280;11362;48.102;11.620;2023-05-15T07:12:40;94791.50;;;22.74;46.91
22389;BME280;11362;48.102;11.620;2023-05-15T07:15:05;94793.44;;;22.77;46.87
22389;BME280;11362;48.102;11.620;2023-05-15T07:17:32;94802.88;;;22.79;47.04
22389;BME280;11362;48.102;11.620;2023-05-15T07:19:57;94801.69;;;22.80;46.95
22389;BME280;11362;48.102;11.620;2023-05-15T07:22:25;94790.16;;;22.82;46.66
22389;BME280;11362;48.102;11.620;2023-05-15T07:24:51;94792.16;;;22.81;46.99
22389;BME280;11362;48.102;11.620;2023-05-15T07:27:17;94790.97;;;22.82;46.92
22389;BME280;11362;48.102;11.620;2023-05-15T07:29:42;94783.81;;;22.85;47.14
22389;BME280;11362;48.102;11.620;2023-05-15T07:32:08;94791.72;;;22.83;46.94
22389;BME280;11362;48.102;11.620;2023-05-15T07:34:33;94787.78;;;22.84;46.77
22389;BME280;11362;48.102;11.620;2023-05-15T07:36:58;94792.47;;;22.87;46.82
22389;BME280;11362;48.102;11.620;2023-05-15T07:39:24;94791.66;;;22.86;46.71
22389;BME280;11362;48.102;11.620;2023-05-15T07:41:49;94792.53;;;22.83;46.78
22389;BME280;11362;48.102;11.620;2023-05-15T07:44:14;94793.31;;;22.84;46.91
22389;BME280;11362;48.102;11.620;2023-05-15T07:46:39;94781.44;;;22.83;46.62
22389;BME280;11362;48.102;11.620;2023-05-15T07:49:05;94776.69;;;22.84;46.59
22389;BME280;11362;48.102;11.620;2023-05-15T07:51:30;94769.16;;;22.84;46.37
22389;BME280;11362;48.102;11.620;2023-05-15T07:53:55;94773.06;;;22.87;46.39
22389;BME280;11362;48.102;11.620;2023-05-15T07:56:21;94769.81;;;22.92;46.24
22389;BME280;11362;48.102;11.620;2023-05-15T07:58:46;94754.38;;;22.91;46.13
22389;BME280;11362;48.102;11.620;2023-05-15T08:01:11;94763.06;;;22.93;46.33
22389;BME280;11362;48.102;11.620;2023-05-15T08:03:37;94763.00;;;22.96;46.11
22389;BME280;11362;48.102;11.620;2023-05-15T08:06:02;94772.47;;;22.99;46.34
22389;BME280;11362;48.102;11.620;2023-05-15T08:08:27;94765.41;;;22.94;46.68
22389;BME280;11362;48.102;11.620;2023-05-15T08:10:53;94772.53;;;22.95;46.65
22389;BME280;11362;48.102;11.620;2023-05-15T08:13:18;94768.63;;;22.93;46.60
22389;BME280;11362;48.102;11.620;2023-05-15T08:15:43;94763.84;;;22.93;46.60
22389;BME280;11362;48.102;11.620;2023-05-15T08:18:09;94776.06;;;22.96;46.88
22389;BME280;11362;48.102;11.620;2023-05-15T08:20:34;94776.78;;;23.00;46.69
22389;BME280;11362;48.102;11.620;2023-05-15T08:23:00;94781.13;;;23.01;46.71
22389;BME280;11362;48.102;11.620;2023-05-15T08:25:25;94771.59;;;23.02;46.84
22389;BME280;11362;48.102;11.620;2023-05-15T08:27:50;94764.06;;;23.02;46.71
22389;BME280;11362;48.102;11.620;2023-05-15T08:30:16;94766.06;;;23.02;46.81
22389;BME280;11362;48.102;11.620;2023-05-15T08:32:42;94769.25;;;23.00;46.75
22389;BME280;11362;48.102;11.620;2023-05-15T08:35:07;94766.13;;;22.98;46.69
22389;BME280;11362;48.102;11.620;2023-05-15T08:37:33;94766.06;;;23.02;46.39
22389;BME280;11362;48.102;11.620;2023-05-15T08:39:58;94768.41;;;23.03;46.48
22389;BME280;11362;48.102;11.620;2023-05-15T08:42:42;94771.94;;;23.04;46.75
22389;BME280;11362;48.102;11.620;2023-05-15T08:45:08;94761.66;;;23.04;46.44
22389;BME280;11362;48.102;11.620;2023-05-15T08:47:38;94770.31;;;23.06;46.29
22389;BME280;11362;48.102;11.620;2023-05-15T08:50:09;94755.69;;;23.06;46.45
22389;BME280;11362;48.102;11.620;2023-05-15T08:52:34;94759.31;;;23.03;46.42
22389;BME280;11362;48.102;11.620;2023-05-15T08:55:01;94757.75;;;23.02;46.59
22389;BME280;11362;48.102;11.620;2023-05-15T08:57:27;94766.91;;;22.99;46.67
22389;BME280;11362;48.102;11.620;2023-05-15T08:59:53;94766.53;;;22.97;46.66
22389;BME280;11362;48.102;11.620;2023-05-15T09:02:19;94770.16;;;22.94;46.63
22389;BME280;11362;48.102;11.620;2023-05-15T09:04:45;94770.16;;;22.94;46.77
22389;BME280;11362;48.102;11.620;2023-05-15T09:07:10;94773.72;;;22.94;46.72
22389;BME280;11362;48.102;11.620;2023-05-15T09:09:36;94764.63;;;22.94;46.83
22389;BME280;11362;48.102;11.620;2023-05-15T09:12:02;94769.38;;;22.93;46.97
22389;BME280;11362;48.102;11.620;2023-05-15T09:14:28;94766.97;;;22.95;46.89
22389;BME280;11362;48.102;11.620;2023-05-15T09:16:54;94768.97;;;22.95;47.05
22389;BME280;11362;48.102;11.620;2023-05-15T09:19:20;94764.97;;;22.96;47.02
22389;BME280;11362;48.102;11.620;2023-05-15T09:21:46;94757.88;;;22.95;46.98
22389;BME280;11362;48.102;11.620;2023-05-15T09:24:16;94755.13;;;22.95;46.75
22389;BME280;11362;48.102;11.620;2023-05-15T09:26:42;94763.00;;;22.96;46.79
22389;BME280;11362;48.102;11.620;2023-05-15T09:29:08;94758.22;;;22.97;46.47
22389;BME280;11362;48.102;11.620;2023-05-15T09:31:33;94755.47;;;22.97;46.56
22389;BME280;11362;48.102;11.620;2023-05-15T09:34:00;94758.59;;;22.99;46.50
22389;BME280;11362;48.102;11.620;2023-05-15T09:36:25;94756.25;;;22.97;46.39
22389;BME280;11362;48.102;11.620;2023-05-15T09:38:57;94743.56;;;23.00;46.37
22389;BME280;11362;48.102;11.620;2023-05-15T09:41:26;94744.69;;;23.02;46.33
22389;BME280;11362;48.102;11.620;2023-05-15T09:43:52;94754.19;;;23.01;46.21
22389;BME280;11362;48.102;11.620;2023-05-15T09:46:18;94748.56;;;23.05;46.38
22389;BME280;11362;48.102;11.620;2023-05-15T09:48:43;94726.41;;;23.05;46.38
22389;BME280;11362;48.102;11.620;2023-05-15T09:51:16;94723.22;;;23.06;46.48
22389;BME280;11362;48.102;11.620;2023-05-15T09:53:41;94751.28;;;23.08;46.46
22389;BME280;11362;48.102;11.620;2023-05-15T09:56:08;94735.44;;;23.09;46.15
22389;BME280;11362;48.102;11.620;2023-05-15T09:58:34;94733.09;;;23.07;46.36
22389;BME280;11362;48.102;11.620;2023-05-15T10:00:59;94732.69;;;23.09;46.50
22389;BME280;11362;48.102;11.620;2023-05-15T10:03:24;94731.88;;;23.08;46.44
22389;BME280;11362;48.102;11.620;2023-05-15T10:05:58;94727.94;;;23.09;46.49
22389;BME280;11362;48.102;11.620;2023-05-15T10:08:26;94723.16;;;23.10;46.59
22389;BME280;11362;48.102;11.620;2023-05-15T10:10:51;94717.97;;;23.12;47.11
22389;BME280;11362;48.102;11.620;2023-05-15T10:13:17;94714.00;;;23.13;47.19
22389;BME280;11362;48.102;11.620;2023-05-15T10:15:43;94703.28;;;23.15;47.50
22389;BME280;11362;48.102;11.620;2023-05-15T10:18:08;94696.16;;;23.14;47.44
22389;BME280;11362;48.102;11.620;2023-05-15T10:20:34;94698.94;;;23.14;47.97
22389;BME280;11362;48.102;11.620;2023-05-15T10:23:03;94694.97;;;23.15;48.42
22389;BME280;11362;48.102;11.620;2023-05-15T10:26:01;94692.91;;;23.19;48.79
22389;BME280;11362;48.102;11.620;2023-05-15T10:28:27;94689.38;;;23.18;48.76
22389;BME280;11362;48.102;11.620;2023-05-15T10:30:54;94691.69;;;23.20;49.13
22389;BME280;11362;48.102;11.620;2023-05-15T10:33:20;94698.38;;;23.22;49.25
22389;BME280;11362;48.102;11.620;2023-05-15T10:35:47;94693.63;;;23.23;49.12
22389;BME280;11362;48.102;11.620;2023-05-15T10:38:13;94692.91;;;23.19;49.06
22389;BME280;11362;48.102;11.620;2023-05-15T10:40:39;94689.78;;;23.17;49.64
22389;BME280;11362;48.102;11.620;2023-05-15T10:43:05;94685.47;;;23.16;49.59
22389;BME280;11362;48.102;11.620;2023-05-15T10:45:32;94686.66;;;23.15;49.67
22389;BME280;11362;48.102;11.620;2023-05-15T10:48:00;94681.09;;;23.15;49.71
22389;BME280;11362;48.102;11.620;2023-05-15T10:50:26;94692.19;;;23.15;49.76
22389;BME280;11362;48.102;11.620;2023-05-15T10:52:51;94679.53;;;23.14;49.82
22389;BME280;11362;48.102;11.620;2023-05-15T10:55:17;94683.88;;;23.15;49.50
22389;BME280;11362;48.102;11.620;2023-05-15T10:57:46;94689.03;;;23.16;49.77
22389;BME280;11362;48.102;11.620;2023-05-15T11:00:24;94691.00;;;23.16;49.65
22389;BME280;11362;48.102;11.620;2023-05-15T11:02:50;94679.13;;;23.15;49.68
22389;BME280;11362;48.102;11.620;2023-05-15T11:05:15;94680.28;;;23.18;49.67
22389;BME280;11362;48.102;11.620;2023-05-15T11:07:41;94681.47;;;23.17;49.51
22389;BME280;11362;48.102;11.620;2023-05-15T11:12:58;94676.78;;;23.14;49.34
22389;BME280;11362;48.102;11.620;2023-05-15T11:15:23;94675.63;;;23.11;49.21
22389;BME280;11362;48.102;11.620;2023-05-15T11:18:03;94679.63;;;23.10;49.07
22389;BME280;11362;48.102;11.620;2023-05-15T11:20:41;94670.53;;;23.10;49.15
22389;BME280;11362;48.102;11.620;2023-05-15T11:23:07;94658.31;;;23.07;48.98
22389;BME280;11362;48.102;11.620;2023-05-15T11:25:35;94670.16;;;23.08;48.86
22389;BME280;11362;48.102;11.620;2023-05-15T11:28:04;94668.63;;;23.07;48.88
22389;BME280;11362;48.102;11.620;2023-05-15T11:30:37;94688.00;;;23.07;48.85
22389;BME280;11362;48.102;11.620;2023-05-15T11:33:09;94689.22;;;23.06;48.81
22389;BME280;11362;48.102;11.620;2023-05-15T11:35:40;94675.38;;;23.06;48.67
22389;BME280;11362;48.102;11.620;2023-05-15T11:40:49;94672.22;;;23.04;48.68
22389;BME280;11362;48.102;11.620;2023-05-15T11:45:58;94675.00;;;23.04;48.48
22389;BME280;11362;48.102;11.620;2023-05-15T11:48:26;94677.41;;;23.02;48.39
22389;BME280;11362;48.102;11.620;2023-05-15T11:50:54;94673.09;;;23.01;48.28
22389;BME280;11362;48.102;11.620;2023-05-15T11:53:20;94676.28;;;22.99;48.52
22389;BME280;11362;48.102;11.620;2023-05-15T11:55:46;94683.81;;;22.99;48.38
22389;BME280;11362;48.102;11.620;2023-05-15T11:58:13;94692.91;;;22.99;48.36
22389;BME280;11362;48.102;11.620;2023-05-15T12:00:39;94698.44;;;22.99;48.48
22389;BME280;11362;48.102;11.620;2023-05-15T12:03:04;94697.66;;;22.99;48.15
22389;BME280;11362;48.102;11.620;2023-05-15T12:05:30;94691.34;;;22.98;48.12
22389;BME280;11362;48.102;11.620;2023-05-15T12:07:56;94683.81;;;22.99;48.13
22389;BME280;11362;48.102;11.620;2023-05-15T12:10:22;94676.28;;;22.99;48.02
22389;BME280;11362;48.102;11.620;2023-05-15T12:12:47;94683.03;;;22.98;47.90
22389;BME280;11362;48.102;11.620;2023-05-15T12:15:15;94692.91;;;22.99;48.05
22389;BME280;11362;48.102;11.620;2023-05-15T12:17:42;94691.28;;;23.02;48.14
22389;BME280;11362;48.102;11.620;2023-05-15T12:20:15;94692.47;;;23.01;48.00
22389;BME280;11362;48.102;11.620;2023-05-15T12:22:40;94707.88;;;23.02;48.18
22389;BME280;11362;48.102;11.620;2023-05-15T12:25:06;94715.34;;;23.05;48.29
22389;BME280;11362;48.102;11.620;2023-05-15T12:27:33;94721.75;;;23.02;48.29
22389;BME280;11362;48.102;11.620;2023-05-15T12:30:00;94718.63;;;23.00;48.04
22389;BME280;11362;48.102;11.620;2023-05-15T12:32:25;94700.78;;;23.01;48.25
22389;BME280;11362;48.102;11.620;2023-05-15T12:34:52;94696.47;;;23.00;48.11
22389;BME280;11362;48.102;11.620;2023-05-15T12:37:18;94694.09;;;22.98;47.93
22389;BME280;11362;48.102;11.620;2023-05-15T12:39:52;94703.22;;;22.99;48.09
22389;BME280;11362;48.102;11.620;2023-05-15T12:42:18;94718.25;;;22.98;48.00
22389;BME280;11362;48.102;11.620;2023-05-15T12:44:43;94715.47;;;22.98;48.07
22389;BME280;11362;48.102;11.620;2023-05-15T12:47:12;94719.03;;;22.98;48.01
22389;BME280;11362;48.102;11.620;2023-05-15T12:49:40;94718.25;;;22.98;48.15
22389;BME280;11362;48.102;11.620;2023-05-15T12:52:07;94729.31;;;22.98;47.95
22389;BME280;11362;48.102;11.620;2023-05-15T12:54:40;94723.38;;;22.99;48.06
22389;BME280;11362;48.102;11.620;2023-05-15T12:57:07;94724.91;;;23.00;48.16
22389;BME280;11362;48.102;11.620;2023-05-15T12:59:33;94731.25;;;23.01;48.32
22389;BME280;11362;48.102;11.620;2023-05-15T13:01:58;94736.38;;;23.02;48.46
22389;BME280;11362;48.102;11.620;2023-05-15T13:04:23;94733.63;;;23.02;48.40
22389;BME280;11362;48.102;11.620;2023-05-15T13:06:49;94735.59;;;23.02;48.39